sensor_id;sensor_type;location;lat;lon;timestamp;P1;durP1;ratioP1;P2;durP2;ratioP2
6614;SDS011;3343;42.896;23.912;2022-10-16T00:00:38;4.00;;;2.53;;
6614;SDS011;3343;42.896;23.912;2022-10-16T00:03:06;4.53;;;3.37;;
6614;SDS011;3343;42.896;23.912;2022-10-16T00:05:37;5.17;;;3.20;;
6614;SDS011;3343;42.896;23.912;2022-10-16T00:08:05;7.70;;;2.83;;
6614;SDS011;3343;42.896;23.912;2022-10-16T00:10:34;5.37;;;3.23;;
6614;SDS011;3343;42.896;23.912;2022-10-16T00:13:01;5.27;;;2.93;;
6614;SDS011;3343;42.896;23.912;2022-10-16T00:15:27;5.30;;;2.97;;
6614;SDS011;3343;42.896;23.912;2022-10-16T00:17:54;6.67;;;2.73;;
6614;SDS011;3343;42.896;23.912;2022-10-16T00:20:21;4.03;;;3.07;;
6614;SDS011;3343;42.896;23.912;2022-10-16T00:22:48;5.83;;;3.43;;
6614;SDS011;3343;42.896;23.912;2022-10-16T00:25:15;3.97;;;2.87;;
6614;SDS011;3343;42.896;23.912;2022-10-16T00:27:43;3.97;;;2.60;;
6614;SDS011;3343;42.896;23.912;2022-10-16T00:30:10;3.93;;;2.67;;
6614;SDS011;3343;42.896;23.912;2022-10-16T00:32:37;4.17;;;3.07;;
6614;SDS011;3343;42.896;23.912;2022-10-16T00:35:05;3.63;;;2.67;;
6614;SDS011;3343;42.896;23.912;2022-10-16T00:37:32;5.03;;;2.80;;
6614;SDS011;3343;42.896;23.912;2022-10-16T00:39:59;4.43;;;3.03;;
6614;SDS011;3343;42.896;23.912;2022-10-16T00:42:26;3.70;;;2.53;;
6614;SDS011;3343;42.896;23.912;2022-10-16T00:44:55;3.60;;;2.63;;
6614;SDS011;3343;42.896;23.912;2022-10-16T00:47:24;4.77;;;2.70;;
6614;SDS011;3343;42.896;23.912;2022-10-16T00:49:57;4.20;;;2.70;;
6614;SDS011;3343;42.896;23.912;2022-10-16T00:52:26;3.83;;;2.43;;
6614;SDS011;3343;42.896;23.912;2022-10-16T00:54:54;3.20;;;2.43;;
6614;SDS011;3343;42.896;23.912;2022-10-16T00:57:22;3.73;;;2.77;;
6614;SDS011;3343;42.896;23.912;2022-10-16T00:59:49;2.20;;;2.00;;
6614;SDS011;3343;42.896;23.912;2022-10-16T01:02:18;4.83;;;2.80;;
6614;SDS011;3343;42.896;23.912;2022-10-16T01:04:46;3.63;;;2.40;;
6614;SDS011;3343;42.896;23.912;2022-10-16T01:07:18;3.33;;;2.37;;
6614;SDS011;3343;42.896;23.912;2022-10-16T01:09:57;3.13;;;2.50;;
6614;SDS011;3343;42.896;23.912;2022-10-16T01:12:35;3.23;;;2.73;;
6614;SDS011;3343;42.896;23.912;2022-10-16T01:15:09;3.90;;;2.70;;
6614;SDS011;3343;42.896;23.912;2022-10-16T01:17:43;3.23;;;2.50;;
6614;SDS011;3343;42.896;23.912;2022-10-16T01:20:15;3.77;;;2.73;;
6614;SDS011;3343;42.896;23.912;2022-10-16T01:22:57;4.27;;;2.60;;
6614;SDS011;3343;42.896;23.912;2022-10-16T01:25:34;5.50;;;2.63;;
6614;SDS011;3343;42.896;23.912;2022-10-16T01:28:16;3.23;;;2.37;;
6614;SDS011;3343;42.896;23.912;2022-10-16T01:30:48;3.97;;;2.77;;
6614;SDS011;3343;42.896;23.912;2022-10-16T01:33:20;4.93;;;3.07;;
6614;SDS011;3343;42.896;23.912;2022-10-16T01:35:52;3.40;;;2.77;;
6614;SDS011;3343;42.896;23.912;2022-10-16T01:38:22;4.33;;;2.87;;
6614;SDS011;3343;42.896;23.912;2022-10-16T01:40:54;4.73;;;3.07;;
6614;SDS011;3343;42.896;23.912;2022-10-16T01:43:26;3.83;;;3.00;;
6614;SDS011;3343;42.896;23.912;2022-10-16T01:45:57;5.23;;;2.77;;
6614;SDS011;3343;42.896;23.912;2022-10-16T01:48:26;3.23;;;2.53;;
6614;SDS011;3343;42.896;23.912;2022-10-16T01:50:57;3.77;;;2.53;;
6614;SDS011;3343;42.896;23.912;2022-10-16T01:53:26;3.97;;;2.50;;
6614;SDS011;3343;42.896;23.912;2022-10-16T01:55:54;3.20;;;2.10;;
6614;SDS011;3343;42.896;23.912;2022-10-16T01:58:23;3.90;;;2.93;;
6614;SDS011;3343;42.896;23.912;2022-10-16T02:00:55;3.00;;;2.50;;
6614;SDS011;3343;42.896;23.912;2022-10-16T02:03:23;4.37;;;2.90;;
6614;SDS011;3343;42.896;23.912;2022-10-16T02:05:50;3.87;;;2.30;;
6614;SDS011;3343;42.896;23.912;2022-10-16T02:08:19;4.60;;;2.63;;
6614;SDS011;3343;42.896;23.912;2022-10-16T02:10:49;3.40;;;2.20;;
6614;SDS011;3343;42.896;23.912;2022-10-16T02:13:17;3.67;;;2.40;;
6614;SDS011;3343;42.896;23.912;2022-10-16T02:15:49;3.67;;;2.27;;
6614;SDS011;3343;42.896;23.912;2022-10-16T02:18:16;3.10;;;2.33;;
6614;SDS011;3343;42.896;23.912;2022-10-16T02:20:43;2.97;;;2.30;;
6614;SDS011;3343;42.896;23.912;2022-10-16T02:23:19;3.90;;;2.93;;
6614;SDS011;3343;42.896;23.912;2022-10-16T02:25:54;3.17;;;2.07;;
6614;SDS011;3343;42.896;23.912;2022-10-16T02:28:26;3.77;;;2.57;;
6614;SDS011;3343;42.896;23.912;2022-10-16T02:31:00;2.43;;;2.20;;
6614;SDS011;3343;42.896;23.912;2022-10-16T02:33:29;3.53;;;2.00;;
6614;SDS011;3343;42.896;23.912;2022-10-16T02:35:58;4.37;;;2.90;;
6614;SDS011;3343;42.896;23.912;2022-10-16T02:38:25;3.17;;;2.30;;
6614;SDS011;3343;42.896;23.912;2022-10-16T02:40:55;4.20;;;2.27;;
6614;SDS011;3343;42.896;23.912;2022-10-16T02:43:22;4.47;;;2.40;;
6614;SDS011;3343;42.896;23.912;2022-10-16T02:45:51;3.97;;;2.67;;
6614;SDS011;3343;42.896;23.912;2022-10-16T02:48:19;2.73;;;2.17;;
6614;SDS011;3343;42.896;23.912;2022-10-16T02:50:46;2.53;;;2.17;;
6614;SDS011;3343;42.896;23.912;2022-10-16T02:53:13;4.17;;;2.57;;
6614;SDS011;3343;42.896;23.912;2022-10-16T02:55:40;2.80;;;2.50;;
6614;SDS011;3343;42.896;23.912;2022-10-16T02:58:07;4.43;;;2.93;;
6614;SDS011;3343;42.896;23.912;2022-10-16T03:00:34;4.10;;;2.70;;
6614;SDS011;3343;42.896;23.912;2022-10-16T03:03:01;3.10;;;2.53;;
6614;SDS011;3343;42.896;23.912;2022-10-16T03:05:29;3.17;;;2.43;;
6614;SDS011;3343;42.896;23.912;2022-10-16T03:07:56;2.73;;;2.47;;
6614;SDS011;3343;42.896;23.912;2022-10-16T03:10:25;3.87;;;2.97;;
6614;SDS011;3343;42.896;23.912;2022-10-16T03:12:52;4.07;;;2.90;;
6614;SDS011;3343;42.896;23.912;2022-10-16T03:15:18;3.53;;;2.67;;
6614;SDS011;3343;42.896;23.912;2022-10-16T03:17:45;4.97;;;3.40;;
6614;SDS011;3343;42.896;23.912;2022-10-16T03:20:12;3.87;;;2.73;;
6614;SDS011;3343;42.896;23.912;2022-10-16T03:22:41;3.90;;;2.40;;
6614;SDS011;3343;42.896;23.912;2022-10-16T03:25:08;3.77;;;2.90;;
6614;SDS011;3343;42.896;23.912;2022-10-16T03:27:35;3.77;;;2.87;;
6614;SDS011;3343;42.896;23.912;2022-10-16T03:30:02;3.90;;;2.80;;
6614;SDS011;3343;42.896;23.912;2022-10-16T03:32:29;4.23;;;2.80;;
6614;SDS011;3343;42.896;23.912;2022-10-16T03:34:56;4.37;;;2.90;;
6614;SDS011;3343;42.896;23.912;2022-10-16T03:37:23;3.07;;;2.63;;
6614;SDS011;3343;42.896;23.912;2022-10-16T03:39:51;2.73;;;2.37;;
6614;SDS011;3343;42.896;23.912;2022-10-16T03:42:19;2.73;;;2.33;;
6614;SDS011;3343;42.896;23.912;2022-10-16T03:44:46;4.27;;;2.80;;
6614;SDS011;3343;42.896;23.912;2022-10-16T03:47:13;4.03;;;2.57;;
6614;SDS011;3343;42.896;23.912;2022-10-16T03:49:40;2.90;;;2.27;;
6614;SDS011;3343;42.896;23.912;2022-10-16T03:52:06;2.93;;;1.90;;
6614;SDS011;3343;42.896;23.912;2022-10-16T03:54:33;3.00;;;2.40;;
6614;SDS011;3343;42.896;23.912;2022-10-16T03:57:02;3.57;;;2.70;;
6614;SDS011;3343;42.896;23.912;2022-10-16T03:59:28;3.40;;;2.50;;
6614;SDS011;3343;42.896;23.912;2022-10-16T04:01:55;3.83;;;2.70;;
6614;SDS011;3343;42.896;23.912;2022-10-16T04:04:22;2.97;;;2.47;;
6614;SDS011;3343;42.896;23.912;2022-10-16T04:06:50;3.90;;;2.77;;
6614;SDS011;3343;42.896;23.912;2022-10-16T04:09:16;5.13;;;2.60;;
6614;SDS011;3343;42.896;23.912;2022-10-16T04:11:43;7.27;;;3.80;;
6614;SDS011;3343;42.896;23.912;2022-10-16T04:14:11;3.93;;;2.40;;
6614;SDS011;3343;42.896;23.912;2022-10-16T04:16:38;3.53;;;2.47;;
6614;SDS011;3343;42.896;23.912;2022-10-16T04:19:05;3.73;;;2.70;;
6614;SDS011;3343;42.896;23.912;2022-10-16T04:21:32;4.80;;;2.57;;
6614;SDS011;3343;42.896;23.912;2022-10-16T04:24:00;7.30;;;4.30;;
6614;SDS011;3343;42.896;23.912;2022-10-16T04:26:27;7.93;;;3.97;;
6614;SDS011;3343;42.896;23.912;2022-10-16T04:28:54;7.00;;;4.33;;
6614;SDS011;3343;42.896;23.912;2022-10-16T04:31:22;8.03;;;4.00;;
6614;SDS011;3343;42.896;23.912;2022-10-16T04:33:49;7.60;;;4.03;;
6614;SDS011;3343;42.896;23.912;2022-10-16T04:36:16;5.83;;;3.57;;
6614;SDS011;3343;42.896;23.912;2022-10-16T04:38:43;3.80;;;3.03;;
6614;SDS011;3343;42.896;23.912;2022-10-16T04:41:10;7.50;;;3.67;;
6614;SDS011;3343;42.896;23.912;2022-10-16T04:43:37;5.07;;;2.87;;
6614;SDS011;3343;42.896;23.912;2022-10-16T04:46:03;4.57;;;2.90;;
6614;SDS011;3343;42.896;23.912;2022-10-16T04:48:32;3.90;;;2.80;;
6614;SDS011;3343;42.896;23.912;2022-10-16T04:50:59;4.07;;;3.00;;
6614;SDS011;3343;42.896;23.912;2022-10-16T04:53:26;5.33;;;3.13;;
6614;SDS011;3343;42.896;23.912;2022-10-16T04:55:53;7.67;;;3.13;;
6614;SDS011;3343;42.896;23.912;2022-10-16T04:58:21;4.70;;;3.50;;
6614;SDS011;3343;42.896;23.912;2022-10-16T05:00:47;6.03;;;3.27;;
6614;SDS011;3343;42.896;23.912;2022-10-16T05:03:14;6.40;;;3.63;;
6614;SDS011;3343;42.896;23.912;2022-10-16T05:05:43;5.23;;;3.10;;
6614;SDS011;3343;42.896;23.912;2022-10-16T05:08:11;5.50;;;3.70;;
6614;SDS011;3343;42.896;23.912;2022-10-16T05:10:39;3.50;;;2.73;;
6614;SDS011;3343;42.896;23.912;2022-10-16T05:13:07;4.13;;;3.17;;
6614;SDS011;3343;42.896;23.912;2022-10-16T05:15:34;5.60;;;3.23;;
6614;SDS011;3343;42.896;23.912;2022-10-16T05:18:01;5.00;;;3.23;;
6614;SDS011;3343;42.896;23.912;2022-10-16T05:20:28;4.53;;;3.10;;
6614;SDS011;3343;42.896;23.912;2022-10-16T05:22:57;7.33;;;3.00;;
6614;SDS011;3343;42.896;23.912;2022-10-16T05:25:24;4.33;;;3.10;;
6614;SDS011;3343;42.896;23.912;2022-10-16T05:27:51;3.67;;;2.93;;
6614;SDS011;3343;42.896;23.912;2022-10-16T05:30:18;4.33;;;2.80;;
6614;SDS011;3343;42.896;23.912;2022-10-16T05:32:48;3.73;;;2.90;;
6614;SDS011;3343;42.896;23.912;2022-10-16T05:35:16;5.97;;;3.37;;
6614;SDS011;3343;42.896;23.912;2022-10-16T05:37:43;6.30;;;3.83;;
6614;SDS011;3343;42.896;23.912;2022-10-16T05:40:12;4.67;;;3.23;;
6614;SDS011;3343;42.896;23.912;2022-10-16T05:42:39;4.80;;;3.03;;
6614;SDS011;3343;42.896;23.912;2022-10-16T05:45:06;4.27;;;3.60;;
6614;SDS011;3343;42.896;23.912;2022-10-16T05:47:36;5.33;;;3.93;;
6614;SDS011;3343;42.896;23.912;2022-10-16T05:50:03;5.37;;;4.10;;
6614;SDS011;3343;42.896;23.912;2022-10-16T05:52:30;6.33;;;3.93;;
6614;SDS011;3343;42.896;23.912;2022-10-16T05:54:57;15.40;;;7.70;;
6614;SDS011;3343;42.896;23.912;2022-10-16T05:57:25;9.77;;;5.93;;
6614;SDS011;3343;42.896;23.912;2022-10-16T05:59:52;12.23;;;7.80;;
6614;SDS011;3343;42.896;23.912;2022-10-16T06:02:19;7.60;;;5.17;;
6614;SDS011;3343;42.896;23.912;2022-10-16T06:04:46;9.60;;;5.70;;
6614;SDS011;3343;42.896;23.912;2022-10-16T06:07:13;9.03;;;5.57;;
6614;SDS011;3343;42.896;23.912;2022-10-16T06:09:40;9.90;;;5.63;;
6614;SDS011;3343;42.896;23.912;2022-10-16T06:12:06;7.50;;;5.13;;
6614;SDS011;3343;42.896;23.912;2022-10-16T06:14:35;9.87;;;4.57;;
6614;SDS011;3343;42.896;23.912;2022-10-16T06:17:01;6.77;;;4.43;;
6614;SDS011;3343;42.896;23.912;2022-10-16T06:19:28;5.73;;;4.17;;
6614;SDS011;3343;42.896;23.912;2022-10-16T06:21:56;6.77;;;4.27;;
6614;SDS011;3343;42.896;23.912;2022-10-16T06:24:24;7.70;;;4.80;;
6614;SDS011;3343;42.896;23.912;2022-10-16T06:26:51;7.50;;;4.90;;
6614;SDS011;3343;42.896;23.912;2022-10-16T06:29:17;8.07;;;4.90;;
6614;SDS011;3343;42.896;23.912;2022-10-16T06:31:46;11.53;;;5.90;;
6614;SDS011;3343;42.896;23.912;2022-10-16T06:34:13;8.47;;;5.50;;
6614;SDS011;3343;42.896;23.912;2022-10-16T06:36:41;6.83;;;4.97;;
6614;SDS011;3343;42.896;23.912;2022-10-16T06:39:08;6.33;;;4.33;;
6614;SDS011;3343;42.896;23.912;2022-10-16T06:41:35;9.03;;;4.77;;
6614;SDS011;3343;42.896;23.912;2022-10-16T06:44:05;6.03;;;4.07;;
6614;SDS011;3343;42.896;23.912;2022-10-16T06:46:33;5.83;;;3.80;;
6614;SDS011;3343;42.896;23.912;2022-10-16T06:49:02;4.07;;;3.07;;
6614;SDS011;3343;42.896;23.912;2022-10-16T06:51:29;2.43;;;2.23;;
6614;SDS011;3343;42.896;23.912;2022-10-16T06:53:57;1.87;;;1.77;;
6614;SDS011;3343;42.896;23.912;2022-10-16T06:56:25;2.57;;;2.20;;
6614;SDS011;3343;42.896;23.912;2022-10-16T06:58:53;2.93;;;2.40;;
6614;SDS011;3343;42.896;23.912;2022-10-16T07:01:22;3.37;;;2.77;;
6614;SDS011;3343;42.896;23.912;2022-10-16T07:03:50;3.40;;;2.90;;
6614;SDS011;3343;42.896;23.912;2022-10-16T07:06:19;3.93;;;3.40;;
6614;SDS011;3343;42.896;23.912;2022-10-16T07:08:47;7.47;;;3.73;;
6614;SDS011;3343;42.896;23.912;2022-10-16T07:11:16;4.90;;;3.97;;
6614;SDS011;3343;42.896;23.912;2022-10-16T07:13:45;4.50;;;3.17;;
6614;SDS011;3343;42.896;23.912;2022-10-16T07:16:13;3.40;;;3.10;;
6614;SDS011;3343;42.896;23.912;2022-10-16T07:18:42;4.00;;;3.17;;
6614;SDS011;3343;42.896;23.912;2022-10-16T07:21:11;4.60;;;4.20;;
6614;SDS011;3343;42.896;23.912;2022-10-16T07:23:40;4.33;;;3.60;;
6614;SDS011;3343;42.896;23.912;2022-10-16T07:26:08;4.73;;;3.57;;
6614;SDS011;3343;42.896;23.912;2022-10-16T07:28:35;4.83;;;3.43;;
6614;SDS011;3343;42.896;23.912;2022-10-16T07:31:03;4.70;;;3.63;;
6614;SDS011;3343;42.896;23.912;2022-10-16T07:33:32;5.17;;;3.43;;
6614;SDS011;3343;42.896;23.912;2022-10-16T07:36:00;4.70;;;3.33;;
6614;SDS011;3343;42.896;23.912;2022-10-16T07:38:27;6.27;;;3.90;;
6614;SDS011;3343;42.896;23.912;2022-10-16T07:40:59;4.20;;;3.27;;
6614;SDS011;3343;42.896;23.912;2022-10-16T07:43:27;6.50;;;3.87;;
6614;SDS011;3343;42.896;23.912;2022-10-16T07:45:55;4.40;;;3.30;;
6614;SDS011;3343;42.896;23.912;2022-10-16T07:48:22;4.00;;;3.07;;
6614;SDS011;3343;42.896;23.912;2022-10-16T07:50:50;3.97;;;3.43;;
6614;SDS011;3343;42.896;23.912;2022-10-16T07:53:17;6.27;;;3.60;;
6614;SDS011;3343;42.896;23.912;2022-10-16T07:55:44;4.33;;;3.63;;
6614;SDS011;3343;42.896;23.912;2022-10-16T07:58:12;5.17;;;3.67;;
6614;SDS011;3343;42.896;23.912;2022-10-16T08:00:39;5.13;;;3.40;;
6614;SDS011;3343;42.896;23.912;2022-10-16T08:03:06;9.03;;;3.83;;
6614;SDS011;3343;42.896;23.912;2022-10-16T08:05:34;4.40;;;2.80;;
6614;SDS011;3343;42.896;23.912;2022-10-16T08:08:01;7.10;;;3.43;;
6614;SDS011;3343;42.896;23.912;2022-10-16T08:10:28;3.67;;;2.70;;
6614;SDS011;3343;42.896;23.912;2022-10-16T08:12:56;6.55;;;3.00;;
6614;SDS011;3343;42.896;23.912;2022-10-16T08:15:25;5.90;;;3.20;;
6614;SDS011;3343;42.896;23.912;2022-10-16T08:17:56;2.85;;;2.58;;
6614;SDS011;3343;42.896;23.912;2022-10-16T08:20:23;3.60;;;3.00;;
6614;SDS011;3343;42.896;23.912;2022-10-16T08:22:50;8.17;;;3.10;;
6614;SDS011;3343;42.896;23.912;2022-10-16T08:25:18;4.68;;;3.63;;
6614;SDS011;3343;42.896;23.912;2022-10-16T08:27:44;6.90;;;3.73;;
6614;SDS011;3343;42.896;23.912;2022-10-16T08:30:12;7.77;;;3.57;;
6614;SDS011;3343;42.896;23.912;2022-10-16T08:32:40;4.63;;;3.58;;
6614;SDS011;3343;42.896;23.912;2022-10-16T08:35:08;4.82;;;3.40;;
6614;SDS011;3343;42.896;23.912;2022-10-16T08:37:35;5.13;;;3.93;;
6614;SDS011;3343;42.896;23.912;2022-10-16T08:40:03;4.55;;;3.67;;
6614;SDS011;3343;42.896;23.912;2022-10-16T08:42:37;6.53;;;4.13;;
6614;SDS011;3343;42.896;23.912;2022-10-16T08:48:06;5.45;;;3.80;;
6614;SDS011;3343;42.896;23.912;2022-10-16T08:50:41;4.47;;;3.67;;
6614;SDS011;3343;42.896;23.912;2022-10-16T08:53:10;4.57;;;3.35;;
6614;SDS011;3343;42.896;23.912;2022-10-16T08:55:43;6.15;;;3.88;;
6614;SDS011;3343;42.896;23.912;2022-10-16T08:58:13;3.85;;;3.30;;
6614;SDS011;3343;42.896;23.912;2022-10-16T09:00:42;5.45;;;3.60;;
6614;SDS011;3343;42.896;23.912;2022-10-16T09:03:16;6.22;;;3.15;;
6614;SDS011;3343;42.896;23.912;2022-10-16T09:06:06;3.47;;;2.83;;
6614;SDS011;3343;42.896;23.912;2022-10-16T09:08:43;3.17;;;2.58;;
6614;SDS011;3343;42.896;23.912;2022-10-16T09:11:22;2.47;;;2.22;;
6614;SDS011;3343;42.896;23.912;2022-10-16T09:13:58;4.63;;;2.50;;
6614;SDS011;3343;42.896;23.912;2022-10-16T09:16:41;2.75;;;2.40;;
6614;SDS011;3343;42.896;23.912;2022-10-16T09:19:17;3.35;;;2.65;;
6614;SDS011;3343;42.896;23.912;2022-10-16T09:21:52;3.38;;;2.42;;
6614;SDS011;3343;42.896;23.912;2022-10-16T09:24:21;3.40;;;2.33;;
6614;SDS011;3343;42.896;23.912;2022-10-16T09:26:51;3.95;;;2.67;;
6614;SDS011;3343;42.896;23.912;2022-10-16T09:29:18;3.28;;;2.38;;
6614;SDS011;3343;42.896;23.912;2022-10-16T09:31:48;2.88;;;2.40;;
6614;SDS011;3343;42.896;23.912;2022-10-16T09:34:20;3.45;;;2.15;;
6614;SDS011;3343;42.896;23.912;2022-10-16T09:36:55;4.55;;;2.70;;
6614;SDS011;3343;42.896;23.912;2022-10-16T09:39:25;7.38;;;2.33;;
6614;SDS011;3343;42.896;23.912;2022-10-16T09:41:51;2.58;;;2.05;;
6614;SDS011;3343;42.896;23.912;2022-10-16T09:44:21;3.30;;;2.60;;
6614;SDS011;3343;42.896;23.912;2022-10-16T09:47:00;3.40;;;2.55;;
6614;SDS011;3343;42.896;23.912;2022-10-16T09:49:29;3.33;;;2.25;;
6614;SDS011;3343;42.896;23.912;2022-10-16T09:52:03;3.05;;;2.25;;
6614;SDS011;3343;42.896;23.912;2022-10-16T09:54:30;2.40;;;2.20;;
6614;SDS011;3343;42.896;23.912;2022-10-16T09:57:07;5.05;;;2.50;;
6614;SDS011;3343;42.896;23.912;2022-10-16T09:59:45;2.65;;;2.10;;
6614;SDS011;3343;42.896;23.912;2022-10-16T10:02:14;4.38;;;2.30;;
6614;SDS011;3343;42.896;23.912;2022-10-16T10:04:46;2.38;;;2.03;;
6614;SDS011;3343;42.896;23.912;2022-10-16T10:07:17;4.25;;;2.83;;
6614;SDS011;3343;42.896;23.912;2022-10-16T10:09:46;4.32;;;2.13;;
6614;SDS011;3343;42.896;23.912;2022-10-16T10:12:19;2.70;;;2.30;;
6614;SDS011;3343;42.896;23.912;2022-10-16T10:14:48;3.05;;;2.30;;
6614;SDS011;3343;42.896;23.912;2022-10-16T10:17:17;2.88;;;2.10;;
6614;SDS011;3343;42.896;23.912;2022-10-16T10:19:48;2.13;;;1.73;;
6614;SDS011;3343;42.896;23.912;2022-10-16T10:22:18;2.92;;;2.03;;
6614;SDS011;3343;42.896;23.912;2022-10-16T10:24:56;2.33;;;2.00;;
6614;SDS011;3343;42.896;23.912;2022-10-16T10:27:29;2.65;;;1.92;;
6614;SDS011;3343;42.896;23.912;2022-10-16T10:30:04;6.07;;;1.98;;
6614;SDS011;3343;42.896;23.912;2022-10-16T10:32:42;4.32;;;2.83;;
6614;SDS011;3343;42.896;23.912;2022-10-16T10:35:21;4.28;;;1.95;;
6614;SDS011;3343;42.896;23.912;2022-10-16T10:37:55;7.22;;;1.70;;
6614;SDS011;3343;42.896;23.912;2022-10-16T10:40:35;2.50;;;1.80;;
6614;SDS011;3343;42.896;23.912;2022-10-16T10:43:10;2.72;;;2.28;;
6614;SDS011;3343;42.896;23.912;2022-10-16T10:45:46;6.22;;;2.08;;
6614;SDS011;3343;42.896;23.912;2022-10-16T10:48:23;3.05;;;2.05;;
6614;SDS011;3343;42.896;23.912;2022-10-16T10:51:03;2.67;;;1.92;;
6614;SDS011;3343;42.896;23.912;2022-10-16T10:53:39;2.03;;;1.75;;
6614;SDS011;3343;42.896;23.912;2022-10-16T10:56:16;5.68;;;2.10;;
6614;SDS011;3343;42.896;23.912;2022-10-16T10:58:53;2.17;;;1.98;;
6614;SDS011;3343;42.896;23.912;2022-10-16T11:01:30;2.85;;;1.92;;
6614;SDS011;3343;42.896;23.912;2022-10-16T11:04:10;3.70;;;2.30;;
6614;SDS011;3343;42.896;23.912;2022-10-16T11:06:54;3.28;;;2.22;;
6614;SDS011;3343;42.896;23.912;2022-10-16T11:09:24;3.78;;;1.40;;
6614;SDS011;3343;42.896;23.912;2022-10-16T11:11:55;6.88;;;1.90;;
6614;SDS011;3343;42.896;23.912;2022-10-16T11:14:28;2.22;;;1.67;;
6614;SDS011;3343;42.896;23.912;2022-10-16T11:17:01;1.60;;;1.50;;
6614;SDS011;3343;42.896;23.912;2022-10-16T11:19:35;2.83;;;2.00;;
6614;SDS011;3343;42.896;23.912;2022-10-16T11:22:09;5.43;;;2.15;;
6614;SDS011;3343;42.896;23.912;2022-10-16T11:24:44;4.47;;;2.05;;
6614;SDS011;3343;42.896;23.912;2022-10-16T11:27:17;2.42;;;1.63;;
6614;SDS011;3343;42.896;23.912;2022-10-16T11:29:49;2.03;;;1.70;;
6614;SDS011;3343;42.896;23.912;2022-10-16T11:32:23;2.88;;;1.80;;
6614;SDS011;3343;42.896;23.912;2022-10-16T11:34:57;2.55;;;1.90;;
6614;SDS011;3343;42.896;23.912;2022-10-16T11:37:30;1.98;;;1.50;;
6614;SDS011;3343;42.896;23.912;2022-10-16T11:40:04;1.73;;;1.55;;
6614;SDS011;3343;42.896;23.912;2022-10-16T11:42:46;1.80;;;1.65;;
6614;SDS011;3343;42.896;23.912;2022-10-16T11:45:23;2.45;;;1.75;;
6614;SDS011;3343;42.896;23.912;2022-10-16T11:47:55;3.33;;;1.90;;
6614;SDS011;3343;42.896;23.912;2022-10-16T11:50:28;1.70;;;1.40;;
6614;SDS011;3343;42.896;23.912;2022-10-16T11:53:03;2.65;;;2.03;;
6614;SDS011;3343;42.896;23.912;2022-10-16T11:55:39;3.13;;;1.63;;
6614;SDS011;3343;42.896;23.912;2022-10-16T11:58:07;1.77;;;1.52;;
6614;SDS011;3343;42.896;23.912;2022-10-16T12:00:41;2.25;;;1.80;;
6614;SDS011;3343;42.896;23.912;2022-10-16T12:03:15;2.45;;;1.67;;
6614;SDS011;3343;42.896;23.912;2022-10-16T12:08:51;2.15;;;1.95;;
6614;SDS011;3343;42.896;23.912;2022-10-16T12:11:22;1.80;;;1.60;;
6614;SDS011;3343;42.896;23.912;2022-10-16T12:14:03;2.33;;;1.60;;
6614;SDS011;3343;42.896;23.912;2022-10-16T12:16:32;5.88;;;1.90;;
6614;SDS011;3343;42.896;23.912;2022-10-16T12:19:03;2.63;;;1.90;;
6614;SDS011;3343;42.896;23.912;2022-10-16T12:21:37;2.47;;;1.73;;
6614;SDS011;3343;42.896;23.912;2022-10-16T12:24:06;2.72;;;2.08;;
6614;SDS011;3343;42.896;23.912;2022-10-16T12:26:45;4.82;;;1.80;;
6614;SDS011;3343;42.896;23.912;2022-10-16T12:29:14;2.17;;;1.98;;
6614;SDS011;3343;42.896;23.912;2022-10-16T12:31:50;2.30;;;1.85;;
6614;SDS011;3343;42.896;23.912;2022-10-16T12:34:20;2.25;;;1.67;;
6614;SDS011;3343;42.896;23.912;2022-10-16T12:36:49;2.85;;;1.75;;
6614;SDS011;3343;42.896;23.912;2022-10-16T12:39:21;2.33;;;1.67;;
6614;SDS011;3343;42.896;23.912;2022-10-16T12:42:00;1.95;;;1.67;;
6614;SDS011;3343;42.896;23.912;2022-10-16T12:44:31;1.90;;;1.70;;
6614;SDS011;3343;42.896;23.912;2022-10-16T12:47:00;4.07;;;2.05;;
6614;SDS011;3343;42.896;23.912;2022-10-16T12:49:31;2.00;;;1.67;;
6614;SDS011;3343;42.896;23.912;2022-10-16T12:52:02;2.65;;;1.65;;
6614;SDS011;3343;42.896;23.912;2022-10-16T12:54:31;2.72;;;1.80;;
6614;SDS011;3343;42.896;23.912;2022-10-16T12:57:17;5.25;;;2.00;;
6614;SDS011;3343;42.896;23.912;2022-10-16T12:59:58;3.55;;;1.70;;
6614;SDS011;3343;42.896;23.912;2022-10-16T13:02:48;2.00;;;1.70;;
6614;SDS011;3343;42.896;23.912;2022-10-16T13:05:25;2.15;;;1.40;;
6614;SDS011;3343;42.896;23.912;2022-10-16T13:08:04;2.05;;;1.65;;
6614;SDS011;3343;42.896;23.912;2022-10-16T13:10:47;3.35;;;1.88;;
6614;SDS011;3343;42.896;23.912;2022-10-16T13:13:36;2.25;;;2.03;;
6614;SDS011;3343;42.896;23.912;2022-10-16T13:16:16;1.98;;;1.67;;
6614;SDS011;3343;42.896;23.912;2022-10-16T13:18:52;2.20;;;1.60;;
6614;SDS011;3343;42.896;23.912;2022-10-16T13:21:30;2.65;;;1.83;;
6614;SDS011;3343;42.896;23.912;2022-10-16T13:24:08;1.85;;;1.70;;
6614;SDS011;3343;42.896;23.912;2022-10-16T13:26:46;1.75;;;1.55;;
6614;SDS011;3343;42.896;23.912;2022-10-16T13:29:19;1.70;;;1.60;;
6614;SDS011;3343;42.896;23.912;2022-10-16T13:31:47;1.95;;;1.52;;
6614;SDS011;3343;42.896;23.912;2022-10-16T13:34:16;2.03;;;1.73;;
6614;SDS011;3343;42.896;23.912;2022-10-16T13:36:46;2.30;;;2.10;;
6614;SDS011;3343;42.896;23.912;2022-10-16T13:39:18;4.90;;;3.27;;
6614;SDS011;3343;42.896;23.912;2022-10-16T13:42:00;2.03;;;1.60;;
6614;SDS011;3343;42.896;23.912;2022-10-16T13:44:30;2.53;;;1.97;;
6614;SDS011;3343;42.896;23.912;2022-10-16T13:47:03;2.28;;;1.73;;
6614;SDS011;3343;42.896;23.912;2022-10-16T13:49:29;2.22;;;1.95;;
6614;SDS011;3343;42.896;23.912;2022-10-16T13:51:57;2.28;;;1.90;;
6614;SDS011;3343;42.896;23.912;2022-10-16T13:54:25;4.35;;;2.00;;
6614;SDS011;3343;42.896;23.912;2022-10-16T13:56:53;6.47;;;3.53;;
6614;SDS011;3343;42.896;23.912;2022-10-16T13:59:25;4.70;;;2.22;;
6614;SDS011;3343;42.896;23.912;2022-10-16T14:01:58;2.20;;;1.80;;
6614;SDS011;3343;42.896;23.912;2022-10-16T14:04:32;3.00;;;2.25;;
6614;SDS011;3343;42.896;23.912;2022-10-16T14:06:59;2.70;;;2.07;;
6614;SDS011;3343;42.896;23.912;2022-10-16T14:09:27;2.70;;;1.97;;
6614;SDS011;3343;42.896;23.912;2022-10-16T14:11:56;2.93;;;2.60;;
6614;SDS011;3343;42.896;23.912;2022-10-16T14:14:27;2.90;;;2.50;;
6614;SDS011;3343;42.896;23.912;2022-10-16T14:17:00;3.50;;;2.50;;
6614;SDS011;3343;42.896;23.912;2022-10-16T14:19:29;2.10;;;1.80;;
6614;SDS011;3343;42.896;23.912;2022-10-16T14:21:58;2.73;;;2.13;;
6614;SDS011;3343;42.896;23.912;2022-10-16T14:24:26;3.60;;;2.03;;
6614;SDS011;3343;42.896;23.912;2022-10-16T14:26:57;2.83;;;2.10;;
6614;SDS011;3343;42.896;23.912;2022-10-16T14:29:27;2.60;;;2.20;;
6614;SDS011;3343;42.896;23.912;2022-10-16T14:31:56;5.47;;;2.00;;
6614;SDS011;3343;42.896;23.912;2022-10-16T14:34:25;4.80;;;2.57;;
6614;SDS011;3343;42.896;23.912;2022-10-16T14:36:54;2.90;;;2.10;;
6614;SDS011;3343;42.896;23.912;2022-10-16T14:39:22;3.80;;;2.27;;
6614;SDS011;3343;42.896;23.912;2022-10-16T14:41:52;3.43;;;2.57;;
6614;SDS011;3343;42.896;23.912;2022-10-16T14:44:22;3.23;;;2.03;;
6614;SDS011;3343;42.896;23.912;2022-10-16T14:46:57;6.77;;;2.30;;
6614;SDS011;3343;42.896;23.912;2022-10-16T14:49:32;4.73;;;2.63;;
6614;SDS011;3343;42.896;23.912;2022-10-16T14:51:59;4.00;;;2.80;;
6614;SDS011;3343;42.896;23.912;2022-10-16T14:54:26;4.50;;;2.50;;
6614;SDS011;3343;42.896;23.912;2022-10-16T14:56:53;5.23;;;3.07;;
6614;SDS011;3343;42.896;23.912;2022-10-16T14:59:25;3.07;;;2.37;;
6614;SDS011;3343;42.896;23.912;2022-10-16T15:01:56;6.23;;;4.20;;
6614;SDS011;3343;42.896;23.912;2022-10-16T15:04:23;8.40;;;3.63;;
6614;SDS011;3343;42.896;23.912;2022-10-16T15:06:50;5.93;;;2.87;;
6614;SDS011;3343;42.896;23.912;2022-10-16T15:09:17;3.70;;;2.40;;
6614;SDS011;3343;42.896;23.912;2022-10-16T15:11:44;7.47;;;5.20;;
6614;SDS011;3343;42.896;23.912;2022-10-16T15:14:12;4.23;;;3.07;;
6614;SDS011;3343;42.896;23.912;2022-10-16T15:16:40;3.57;;;2.63;;
6614;SDS011;3343;42.896;23.912;2022-10-16T15:19:08;3.20;;;2.17;;
6614;SDS011;3343;42.896;23.912;2022-10-16T15:21:35;4.20;;;2.80;;
6614;SDS011;3343;42.896;23.912;2022-10-16T15:24:02;2.90;;;2.57;;